createdAt,value
2023-04-25T00:02:13.622Z,99016.16
2023-04-25T00:04:41.283Z,99007.13
2023-04-25T00:07:08.306Z,99013.63
2023-04-25T00:09:35.252Z,99008.28
2023-04-25T00:12:02.574Z,99004.03
2023-04-25T00:14:30.333Z,99016.19
2023-04-25T00:16:57.275Z,99017.97
2023-04-25T00:19:24.015Z,99003.97
2023-04-25T00:21:51.138Z,99014.81
2023-04-25T00:24:18.017Z,99018.66
2023-04-25T00:26:44.713Z,99009.66
2023-04-25T00:29:11.508Z,99013.44
2023-04-25T00:31:38.328Z,99005.34
2023-04-25T00:34:05.059Z,98992.81
2023-04-25T00:36:31.759Z,99007.41
2023-04-25T00:38:58.554Z,98986.09
2023-04-25T00:41:27.469Z,98968.38
2023-04-25T00:43:55.920Z,98995.03
2023-04-25T00:46:22.803Z,98987.94
2023-04-25T00:48:50.158Z,98984.75
2023-04-25T00:51:28.114Z,98971.00
2023-04-25T00:53:55.334Z,98973.22
2023-04-25T00:56:22.477Z,98945.97
2023-04-25T00:58:49.553Z,98954.13
2023-04-25T01:01:16.388Z,98956.34
2023-04-25T01:03:44.611Z,98955.44
2023-04-25T01:06:12.131Z,98948.56
2023-04-25T01:08:40.455Z,98946.13
2023-04-25T01:11:07.683Z,98934.28
2023-04-25T01:13:35.765Z,98947.41
2023-04-25T01:16:03.577Z,98935.75
2023-04-25T01:18:30.489Z,98935.16
2023-04-25T01:21:07.568Z,98933.16
2023-04-25T01:23:34.748Z,98933.31
2023-04-25T01:26:02.351Z,98922.31
2023-04-25T01:28:30.073Z,98927.63
2023-04-25T01:30:57.960Z,98923.28
2023-04-25T01:33:24.680Z,98918.91
2023-04-25T01:35:51.753Z,98910.72
2023-04-25T01:38:18.629Z,98914.19
2023-04-25T01:40:47.770Z,98897.03
2023-04-25T01:43:15.434Z,98899.13
2023-04-25T01:45:43.591Z,98907.97
2023-04-25T01:48:15.290Z,98902.75
2023-04-25T01:50:42.714Z,98908.41
2023-04-25T01:53:12.130Z,98904.72
2023-04-25T01:55:38.933Z,98903.56
2023-04-25T01:58:10.474Z,98891.16
2023-04-25T02:00:39.885Z,98899.22
2023-04-25T02:03:07.557Z,98894.28
2023-04-25T02:05:38.705Z,98885.94
2023-04-25T02:08:07.228Z,98899.91
2023-04-25T02:10:34.745Z,98907.34
2023-04-25T02:13:01.674Z,98916.03
2023-04-25T02:15:28.392Z,98914.59
2023-04-25T02:17:55.121Z,98891.09
2023-04-25T02:20:23.148Z,98881.09
2023-04-25T02:22:49.948Z,98877.00
2023-04-25T02:25:17.256Z,98877.22
2023-04-25T02:27:44.381Z,98895.84
2023-04-25T02:30:11.377Z,98916.03
2023-04-25T02:32:38.511Z,98899.38
2023-04-25T02:35:06.171Z,98912.56
2023-04-25T02:37:34.069Z,98893.88
2023-04-25T02:40:01.153Z,98906.84
2023-04-25T02:42:28.509Z,98910.97
2023-04-25T02:44:55.252Z,98909.41
2023-04-25T02:47:22.243Z,98912.75
2023-04-25T02:49:49.262Z,98905.56
2023-04-25T02:52:15.981Z,98894.31
2023-04-25T02:54:42.720Z,98880.28
2023-04-25T02:57:09.526Z,98875.81
2023-04-25T02:59:36.184Z,98867.13
2023-04-25T03:02:02.957Z,98876.13
2023-04-25T03:04:29.671Z,98893.13
2023-04-25T03:06:56.714Z,98884.69
2023-04-25T03:09:23.405Z,98892.00
2023-04-25T03:11:50.124Z,98878.59
2023-04-25T03:14:16.751Z,98896.72
2023-04-25T03:16:43.747Z,98900.13
2023-04-25T03:19:10.480Z,98893.72
2023-04-25T03:21:37.426Z,98890.00
2023-04-25T03:24:05.883Z,98902.13
2023-04-25T03:26:32.576Z,98905.19
2023-04-25T03:28:59.223Z,98885.47
2023-04-25T03:31:26.173Z,98890.69
2023-04-25T03:33:53.131Z,98895.00
2023-04-25T03:36:20.041Z,98893.78
2023-04-25T03:38:46.731Z,98904.31
2023-04-25T03:41:19.539Z,98899.16
2023-04-25T03:43:46.259Z,98899.41
2023-04-25T03:46:13.209Z,98925.25
2023-04-25T03:48:40.029Z,98911.91
2023-04-25T03:51:07.785Z,98923.59
2023-04-25T03:53:34.481Z,98921.28
2023-04-25T03:56:01.517Z,98923.47
2023-04-25T03:58:28.219Z,98918.28
2023-04-25T04:00:54.888Z,98926.97
2023-04-25T04:03:21.900Z,98931.88
2023-04-25T04:05:49.031Z,98941.53
2023-04-25T04:08:16.054Z,98938.25
2023-04-25T04:10:42.748Z,98938.41
2023-04-25T04:13:09.406Z,98947.75
2023-04-25T04:15:36.203Z,98948.47
2023-04-25T04:18:04.032Z,98947.19
2023-04-25T04:20:34.035Z,98946.59
2023-04-25T04:23:00.818Z,98938.84
2023-04-25T04:25:27.575Z,98940.91
2023-04-25T04:27:55.929Z,98927.94
2023-04-25T04:30:25.263Z,98936.53
2023-04-25T04:32:53.115Z,98930.28
2023-04-25T04:35:19.979Z,98931.50
2023-04-25T04:37:46.913Z,98924.03
2023-04-25T04:40:16.581Z,98927.16
2023-04-25T04:42:43.996Z,98922.84
2023-04-25T04:45:11.358Z,98939.78
2023-04-25T04:47:38.587Z,98917.78
2023-04-25T04:50:05.630Z,98911.97
2023-04-25T04:52:32.487Z,98916.94
2023-04-25T04:54:59.429Z,98914.72
2023-04-25T04:57:26.873Z,98922.00
2023-04-25T04:59:53.562Z,98923.50
2023-04-25T05:02:21.010Z,98922.88
2023-04-25T05:04:48.040Z,98930.63
2023-04-25T05:07:15.014Z,98929.44
2023-04-25T05:09:42.067Z,98923.47
2023-04-25T05:12:09.157Z,98930.50
2023-04-25T05:14:35.921Z,98922.44
2023-04-25T05:17:05.781Z,98922.00
2023-04-25T05:19:33.292Z,98935.44
2023-04-25T05:21:59.929Z,98929.81
2023-04-25T05:24:27.047Z,98922.94
2023-04-25T05:26:54.174Z,98921.00
2023-04-25T05:29:21.020Z,98920.91
2023-04-25T05:31:49.052Z,98919.72
2023-04-25T05:34:16.390Z,98914.84
2023-04-25T05:36:43.238Z,98919.63
2023-04-25T05:39:10.197Z,98895.41
2023-04-25T05:41:36.893Z,98925.31
2023-04-25T05:44:03.699Z,98922.03
2023-04-25T05:46:30.450Z,98932.75
2023-04-25T05:48:57.131Z,98934.25
2023-04-25T05:51:23.872Z,98922.50
2023-04-25T05:53:50.820Z,98917.47
2023-04-25T05:56:17.601Z,98912.38
2023-04-25T05:58:44.294Z,98912.03
2023-04-25T06:01:11.419Z,98917.91
2023-04-25T06:03:39.569Z,98918.56
2023-04-25T06:06:06.863Z,98906.00
2023-04-25T06:08:33.715Z,98900.91
2023-04-25T06:11:00.437Z,98915.63
2023-04-25T06:13:27.145Z,98919.13
2023-04-25T06:15:53.996Z,98897.66
2023-04-25T06:18:20.940Z,98909.00
2023-04-25T06:20:47.586Z,98909.50
2023-04-25T06:23:14.309Z,98900.16
2023-04-25T06:25:41.048Z,98903.16
2023-04-25T06:28:07.702Z,98907.00
2023-04-25T06:30:34.360Z,98893.91
2023-04-25T06:33:01.160Z,98908.13
2023-04-25T06:35:27.850Z,98910.63
2023-04-25T06:37:54.521Z,98908.19
2023-04-25T06:40:22.511Z,98909.56
2023-04-25T06:42:49.280Z,98910.28
2023-04-25T06:45:16.196Z,98913.13
2023-04-25T06:47:42.881Z,98913.25
2023-04-25T06:50:09.885Z,98913.31
2023-04-25T06:52:36.541Z,98909.50
2023-04-25T06:55:03.772Z,98913.06
2023-04-25T06:57:30.508Z,98923.06
2023-04-25T06:59:57.351Z,98917.34
2023-04-25T07:02:24.228Z,98918.34
2023-04-25T07:04:51.395Z,98923.88
2023-04-25T07:07:18.394Z,98917.31
2023-04-25T07:09:45.052Z,98924.06
2023-04-25T07:12:11.755Z,98926.75
2023-04-25T07:14:38.825Z,98931.41
2023-04-25T07:17:07.647Z,98926.59
2023-04-25T07:19:34.655Z,98923.00
2023-04-25T07:22:01.684Z,98915.09
2023-04-25T07:24:28.374Z,98925.63
2023-04-25T07:26:55.085Z,98924.56
2023-04-25T07:29:21.758Z,98926.59
2023-04-25T07:31:48.994Z,98906.50
2023-04-25T07:34:15.774Z,98911.34
2023-04-25T07:36:42.877Z,98913.31
2023-04-25T07:39:10.372Z,98931.03
2023-04-25T07:41:37.178Z,98928.38
2023-04-25T07:44:04.197Z,98925.91
2023-04-25T07:46:30.977Z,98927.28
2023-04-25T07:48:57.703Z,98921.63
2023-04-25T07:51:24.470Z,98914.00
2023-04-25T07:53:51.716Z,98921.34
2023-04-25T07:56:18.427Z,98915.69
2023-04-25T07:58:45.135Z,98905.72
2023-04-25T08:01:11.877Z,98901.97
2023-04-25T08:03:38.676Z,98920.47
2023-04-25T08:06:08.193Z,98914.25
2023-04-25T08:08:35.391Z,98906.44
2023-04-25T08:11:02.162Z,98918.84
2023-04-25T08:13:28.820Z,98918.31
2023-04-25T08:15:55.932Z,98916.50
2023-04-25T08:18:22.750Z,98921.22
2023-04-25T08:20:49.491Z,98921.59
2023-04-25T08:23:16.293Z,98924.31
2023-04-25T08:25:43.075Z,98920.84
2023-04-25T08:28:09.755Z,98910.34
2023-04-25T08:30:36.485Z,98901.41
2023-04-25T08:33:03.259Z,98909.09
2023-04-25T08:35:30.045Z,98907.41
2023-04-25T08:37:56.708Z,98908.66
2023-04-25T08:40:29.839Z,98901.75
2023-04-25T08:42:59.156Z,98902.75
2023-04-25T08:45:29.036Z,98859.56
2023-04-25T08:47:58.379Z,98901.75
2023-04-25T08:50:27.673Z,98899.56
2023-04-25T08:52:56.418Z,98898.72
2023-04-25T08:55:24.007Z,98906.25
2023-04-25T08:57:51.686Z,98902.44
2023-04-25T09:00:20.070Z,98905.91
2023-04-25T09:02:48.358Z,98903.06
2023-04-25T09:05:15.566Z,98891.94
2023-04-25T09:07:42.330Z,98894.22
2023-04-25T09:10:09.700Z,98894.72
2023-04-25T09:12:37.700Z,98895.28
2023-04-25T09:15:09.238Z,98890.94
2023-04-25T09:17:36.176Z,98876.44
2023-04-25T09:20:14.710Z,98874.56
2023-04-25T09:22:41.932Z,98877.03
2023-04-25T09:25:13.021Z,98872.00
2023-04-25T09:27:53.682Z,98876.47
2023-04-25T09:30:29.415Z,98870.34
2023-04-25T09:32:59.191Z,98846.81
2023-04-25T09:35:29.722Z,98871.78
2023-04-25T09:37:56.953Z,98858.47
2023-04-25T09:40:23.867Z,98858.81
2023-04-25T09:42:50.590Z,98868.13
2023-04-25T09:45:17.256Z,98864.28
2023-04-25T09:47:47.321Z,98860.03
2023-04-25T09:50:20.105Z,98861.47
2023-04-25T09:52:46.943Z,98850.78
2023-04-25T09:55:13.768Z,98852.88
2023-04-25T09:57:41.427Z,98845.44
2023-04-25T10:00:13.513Z,98840.16
2023-04-25T10:02:44.112Z,98833.94
2023-04-25T10:05:11.751Z,98834.53
2023-04-25T10:07:39.927Z,98829.13
2023-04-25T10:10:07.322Z,98822.38
2023-04-25T10:12:35.195Z,98807.59
2023-04-25T10:15:03.888Z,98796.59
2023-04-25T10:17:32.631Z,98796.47
2023-04-25T10:19:59.742Z,98803.31
2023-04-25T10:22:37.305Z,98803.31
2023-04-25T10:25:05.357Z,98798.72
2023-04-25T10:27:32.902Z,98794.00
2023-04-25T10:30:07.452Z,98786.34
2023-04-25T10:32:34.645Z,98784.03
2023-04-25T10:35:25.523Z,98794.09
2023-04-25T10:38:08.575Z,98789.88
2023-04-25T10:40:35.803Z,98788.66
2023-04-25T10:43:37.374Z,98783.91
2023-04-25T10:46:14.878Z,98780.69
2023-04-25T10:48:50.190Z,98779.09
2023-04-25T10:51:23.886Z,98769.28
2023-04-25T10:53:56.514Z,98776.66
2023-04-25T10:56:26.386Z,98777.97
2023-04-25T10:58:54.064Z,98765.63
2023-04-25T11:01:26.668Z,98769.91
2023-04-25T11:03:59.532Z,98760.31
2023-04-25T11:07:06.420Z,98772.06
2023-04-25T11:09:48.583Z,98768.13
2023-04-25T11:12:16.116Z,98771.91
2023-04-25T11:14:42.869Z,98768.56
2023-04-25T11:17:10.341Z,98768.09
2023-04-25T11:19:37.169Z,98765.78
2023-04-25T11:22:04.749Z,98760.09
2023-04-25T11:24:34.301Z,98763.91
2023-04-25T11:27:03.389Z,98769.03
2023-04-25T11:29:31.817Z,98762.88
2023-04-25T11:31:59.582Z,98763.28
2023-04-25T11:34:27.282Z,98757.31
2023-04-25T11:36:54.534Z,98744.53
2023-04-25T11:39:21.826Z,98745.59
2023-04-25T11:41:48.796Z,98731.03
2023-04-25T11:44:19.758Z,98733.03
2023-04-25T11:46:47.548Z,98736.88
2023-04-25T11:49:15.957Z,98726.28
2023-04-25T11:51:44.543Z,98713.00
2023-04-25T11:54:12.858Z,98698.59
2023-04-25T11:56:46.763Z,98702.00
2023-04-25T11:59:14.320Z,98691.63
2023-04-25T12:01:42.993Z,98695.97
2023-04-25T12:04:24.556Z,98668.69
2023-04-25T12:06:56.297Z,98679.22
2023-04-25T12:09:33.852Z,98675.28
2023-04-25T12:12:04.496Z,98658.34
2023-04-25T12:14:34.105Z,98662.25
2023-04-25T12:17:02.702Z,98645.91
2023-04-25T12:19:37.552Z,98650.47
2023-04-25T12:22:20.420Z,98655.53
2023-04-25T12:24:47.117Z,98651.75
2023-04-25T12:27:20.256Z,98646.72
2023-04-25T12:29:55.693Z,98647.09
2023-04-25T12:32:22.719Z,98636.88
2023-04-25T12:34:49.651Z,98645.22
2023-04-25T12:37:16.833Z,98644.16
2023-04-25T12:39:43.631Z,98645.47
2023-04-25T12:42:13.292Z,98644.09
2023-04-25T12:44:40.492Z,98635.78
2023-04-25T12:47:07.845Z,98642.88
2023-04-25T12:49:34.643Z,98648.56
2023-04-25T12:52:01.375Z,98646.53
2023-04-25T12:54:28.196Z,98651.38
2023-04-25T12:56:56.007Z,98649.69
2023-04-25T12:59:22.853Z,98654.53
2023-04-25T13:01:49.707Z,98650.00
2023-04-25T13:04:17.219Z,98654.91
2023-04-25T13:06:44.403Z,98651.38
2023-04-25T13:09:13.505Z,98651.84
2023-04-25T13:11:41.860Z,98645.53
2023-04-25T13:14:09.009Z,98627.63
2023-04-25T13:16:35.899Z,98632.25
2023-04-25T13:19:02.771Z,98617.69
2023-04-25T13:24:27.534Z,98614.06
2023-04-25T13:26:54.310Z,98612.06
2023-04-25T13:29:20.936Z,98599.25
2023-04-25T13:31:47.910Z,98607.81
2023-04-25T13:34:14.766Z,98593.09
2023-04-25T13:36:41.580Z,98603.44
2023-04-25T13:39:08.370Z,98599.25
2023-04-25T13:41:35.059Z,98607.25
2023-04-25T13:44:01.964Z,98607.84
2023-04-25T13:46:44.543Z,98612.31
2023-04-25T13:49:13.573Z,98626.31
2023-04-25T13:51:41.512Z,98620.38
2023-04-25T13:54:08.759Z,98636.25
2023-04-25T13:56:35.789Z,98626.03
2023-04-25T13:59:02.457Z,98619.63
2023-04-25T14:01:31.635Z,98614.47
2023-04-25T14:03:58.618Z,98625.38
2023-04-25T14:06:26.473Z,98639.69
2023-04-25T14:08:53.160Z,98643.53
2023-04-25T14:11:19.792Z,98629.00
2023-04-25T14:13:47.434Z,98626.16
2023-04-25T14:16:14.329Z,98632.03
2023-04-25T14:18:41.074Z,98640.75
2023-04-25T14:21:08.022Z,98635.50
2023-04-25T14:23:34.822Z,98630.06
2023-04-25T14:26:01.832Z,98614.94
2023-04-25T14:28:28.574Z,98608.44
2023-04-25T14:30:55.316Z,98617.00
2023-04-25T14:33:22.025Z,98610.09
2023-04-25T14:35:48.765Z,98604.00
2023-04-25T14:38:15.671Z,98582.28
2023-04-25T14:40:42.312Z,98589.91
2023-04-25T14:43:09.014Z,98593.13
2023-04-25T14:45:35.913Z,98584.97
2023-04-25T14:48:03.025Z,98583.16
2023-04-25T14:50:29.747Z,98541.09
2023-04-25T14:52:59.761Z,98590.28
2023-04-25T14:55:26.414Z,98588.22
2023-04-25T14:57:56.419Z,98588.66
2023-04-25T15:00:24.458Z,98596.34
2023-04-25T15:02:51.522Z,98593.47
2023-04-25T15:05:18.954Z,98587.84
2023-04-25T15:07:45.643Z,98582.09
2023-04-25T15:10:16.670Z,98593.84
2023-04-25T15:12:47.895Z,98593.72
2023-04-25T15:15:22.592Z,98590.41
2023-04-25T15:17:52.684Z,98596.44
2023-04-25T15:20:19.450Z,98605.75
2023-04-25T15:22:46.760Z,98606.03
2023-04-25T15:25:13.605Z,98610.56
2023-04-25T15:27:45.340Z,98610.31
2023-04-25T15:30:14.850Z,98601.53
2023-04-25T15:32:42.252Z,98600.50
2023-04-25T15:35:09.458Z,98587.22
2023-04-25T15:37:36.887Z,98595.69
2023-04-25T15:40:11.947Z,98599.47
2023-04-25T15:42:39.837Z,98577.69
2023-04-25T15:45:08.503Z,98577.19
2023-04-25T15:47:36.971Z,98578.19
2023-04-25T15:50:06.674Z,98583.09
2023-04-25T15:52:33.517Z,98567.59
2023-04-25T15:55:01.374Z,98581.41
2023-04-25T15:57:28.189Z,98579.91
2023-04-25T15:59:54.956Z,98584.47
2023-04-25T16:02:21.848Z,98579.50
2023-04-25T16:04:48.781Z,98567.28
2023-04-25T16:07:15.719Z,98572.13
2023-04-25T16:09:42.638Z,98580.41
2023-04-25T16:12:11.549Z,98576.56
2023-04-25T16:14:38.242Z,98578.91
2023-04-25T16:17:04.893Z,98606.41
2023-04-25T16:19:31.725Z,98618.56
2023-04-25T16:21:58.615Z,98641.41
2023-04-25T16:24:25.266Z,98658.47
2023-04-25T16:26:52.513Z,98679.91
2023-04-25T16:29:19.219Z,98697.47
2023-04-25T16:31:47.550Z,98675.91
2023-04-25T16:34:15.393Z,98689.59
2023-04-25T16:36:42.104Z,98692.06
2023-04-25T16:39:08.887Z,98691.94
2023-04-25T16:41:36.164Z,98691.56
2023-04-25T16:44:02.925Z,98712.63
2023-04-25T16:46:29.847Z,98696.91
2023-04-25T16:48:56.608Z,98702.63
2023-04-25T16:51:23.315Z,98701.13
2023-04-25T16:53:50.014Z,98698.22
2023-04-25T16:56:17.194Z,98699.91
2023-04-25T16:58:44.414Z,98697.78
2023-04-25T17:01:15.952Z,98702.31
2023-04-25T17:03:43.876Z,98703.13
2023-04-25T17:06:10.780Z,98690.44
2023-04-25T17:08:37.469Z,98693.06
2023-04-25T17:11:06.107Z,98686.19
2023-04-25T17:13:33.259Z,98686.28
2023-04-25T17:16:00.175Z,98682.56
2023-04-25T17:18:27.489Z,98684.38
2023-04-25T17:20:55.228Z,98691.25
2023-04-25T17:23:22.009Z,98692.00
2023-04-25T17:25:48.861Z,98687.06
2023-04-25T17:28:15.946Z,98681.56
2023-04-25T17:30:42.634Z,98689.16
2023-04-25T17:33:09.513Z,98678.16
2023-04-25T17:35:36.816Z,98687.09
2023-04-25T17:38:04.351Z,98684.44
2023-04-25T17:40:31.635Z,98687.22
2023-04-25T17:42:58.418Z,98693.38
2023-04-25T17:45:25.132Z,98683.41
2023-04-25T17:47:51.824Z,98692.63
2023-04-25T17:50:18.776Z,98688.19
2023-04-25T17:52:48.153Z,98677.19
2023-04-25T17:55:14.943Z,98685.03
2023-04-25T17:57:41.616Z,98689.31
2023-04-25T18:00:09.386Z,98690.75
2023-04-25T18:02:36.753Z,98678.47
2023-04-25T18:05:09.451Z,98688.72
2023-04-25T18:07:37.221Z,98688.72
2023-04-25T18:10:08.371Z,98696.56
2023-04-25T18:12:35.963Z,98707.22
2023-04-25T18:15:05.910Z,98711.13
2023-04-25T18:17:40.311Z,98705.50
2023-04-25T18:20:08.597Z,98715.16
2023-04-25T18:22:37.386Z,98706.28
2023-04-25T18:25:05.741Z,98664.53
2023-04-25T18:27:32.848Z,98708.13
2023-04-25T18:30:00.316Z,98708.38
2023-04-25T18:32:28.555Z,98705.91
2023-04-25T18:34:55.631Z,98705.16
2023-04-25T18:37:22.362Z,98702.75
2023-04-25T18:39:49.280Z,98698.69
2023-04-25T18:42:16.963Z,98690.66
2023-04-25T18:44:43.900Z,98692.56
2023-04-25T18:47:11.275Z,98694.56
2023-04-25T18:49:37.983Z,98699.84
2023-04-25T18:52:05.583Z,98697.94
2023-04-25T18:54:32.304Z,98695.78
2023-04-25T18:57:01.275Z,98689.22
2023-04-25T18:59:28.056Z,98697.88
2023-04-25T19:01:54.984Z,98698.44
2023-04-25T19:04:21.954Z,98691.09
2023-04-25T19:06:51.492Z,98683.09
2023-04-25T19:09:18.428Z,98699.72
2023-04-25T19:11:45.816Z,98652.53
2023-04-25T19:14:14.474Z,98682.28
2023-04-25T19:16:41.725Z,98694.72
2023-04-25T19:19:09.320Z,98696.91
2023-04-25T19:21:36.382Z,98696.56
2023-04-25T19:24:04.983Z,98697.72
2023-04-25T19:26:32.366Z,98697.38
2023-04-25T19:29:17.279Z,98691.41
2023-04-25T19:31:45.082Z,98691.97
2023-04-25T19:34:12.291Z,98692.94
2023-04-25T19:36:40.583Z,98696.09
2023-04-25T19:39:07.965Z,98687.47
2023-04-25T19:41:36.460Z,98687.28
2023-04-25T19:44:06.140Z,98689.25
2023-04-25T19:46:34.207Z,98693.38
2023-04-25T19:49:01.691Z,98690.28
2023-04-25T19:51:29.081Z,98681.41
2023-04-25T19:53:56.609Z,98672.19
2023-04-25T19:56:24.468Z,98684.41
2023-04-25T19:58:51.626Z,98691.16
2023-04-25T20:01:22.194Z,98690.59
2023-04-25T20:03:51.859Z,98679.28
2023-04-25T20:06:19.379Z,98680.91
2023-04-25T20:08:47.344Z,98687.16
2023-04-25T20:11:15.034Z,98693.19
2023-04-25T20:13:41.890Z,98685.59
2023-04-25T20:16:08.848Z,98691.41
2023-04-25T20:18:35.653Z,98694.97
2023-04-25T20:21:02.483Z,98692.13
2023-04-25T20:23:29.507Z,98685.19
2023-04-25T20:25:56.274Z,98686.22
2023-04-25T20:28:23.418Z,98684.88
2023-04-25T20:30:50.749Z,98676.47
2023-04-25T20:33:17.595Z,98674.19
2023-04-25T20:35:44.391Z,98673.00
2023-04-25T20:38:12.151Z,98677.19
2023-04-25T20:40:38.852Z,98682.38
2023-04-25T20:43:05.516Z,98678.81
2023-04-25T20:45:34.652Z,98688.97
2023-04-25T20:48:02.653Z,98685.44
2023-04-25T20:50:29.552Z,98679.03
2023-04-25T20:52:56.247Z,98683.00
2023-04-25T20:55:22.871Z,98681.66
2023-04-25T20:57:49.613Z,98670.28
2023-04-25T21:00:18.578Z,98667.94
2023-04-25T21:02:46.981Z,98673.13
2023-04-25T21:05:14.192Z,98678.00
2023-04-25T21:07:40.951Z,98686.41
2023-04-25T21:10:08.213Z,98681.88
2023-04-25T21:12:36.223Z,98689.00
2023-04-25T21:15:04.263Z,98684.22
2023-04-25T21:17:30.975Z,98674.50
2023-04-25T21:19:57.616Z,98663.03
2023-04-25T21:22:24.426Z,98665.28
2023-04-25T21:24:54.004Z,98603.03
2023-04-25T21:27:20.733Z,98649.66
2023-04-25T21:29:47.462Z,98668.09
2023-04-25T21:32:17.572Z,98673.44
2023-04-25T21:34:44.337Z,98670.81
2023-04-25T21:37:11.293Z,98670.81
2023-04-25T21:39:38.082Z,98667.91
2023-04-25T21:42:09.038Z,98664.53
2023-04-25T21:44:36.498Z,98675.94
2023-04-25T21:47:04.756Z,98672.56
2023-04-25T21:49:33.026Z,98666.53
2023-04-25T21:52:00.179Z,98658.06
2023-04-25T21:54:27.348Z,98664.81
2023-04-25T21:56:54.406Z,98668.59
2023-04-25T21:59:25.435Z,98666.03
2023-04-25T22:01:53.217Z,98664.31
2023-04-25T22:04:20.720Z,98656.00
2023-04-25T22:06:47.596Z,98659.22
2023-04-25T22:09:15.385Z,98660.94
2023-04-25T22:11:43.216Z,98644.69
2023-04-25T22:14:10.828Z,98664.34
2023-04-25T22:16:38.787Z,98663.84
2023-04-25T22:19:06.066Z,98654.78
2023-04-25T22:21:32.794Z,98655.34
2023-04-25T22:24:00.342Z,98651.22
2023-04-25T22:26:27.047Z,98642.97
2023-04-25T22:28:54.004Z,98631.59
2023-04-25T22:31:20.989Z,98645.19
2023-04-25T22:33:48.584Z,98634.75
2023-04-25T22:36:15.351Z,98642.97
2023-04-25T22:38:42.088Z,98645.50
2023-04-25T22:41:09.019Z,98642.81
2023-04-25T22:43:38.391Z,98640.00
2023-04-25T22:46:05.271Z,98632.97
2023-04-25T22:48:32.082Z,98637.88
2023-04-25T22:51:03.369Z,98637.94
2023-04-25T22:53:32.141Z,98635.38
2023-04-25T22:55:58.944Z,98638.69
2023-04-25T22:58:26.222Z,98639.28
2023-04-25T23:00:53.656Z,98644.97
2023-04-25T23:03:20.410Z,98647.84
2023-04-25T23:05:47.641Z,98652.09
2023-04-25T23:08:17.513Z,98647.19
2023-04-25T23:10:44.476Z,98646.06
2023-04-25T23:13:13.348Z,98641.69
2023-04-25T23:15:40.362Z,98645.16
2023-04-25T23:18:07.152Z,98641.19
2023-04-25T23:20:33.882Z,98643.66
2023-04-25T23:23:00.592Z,98632.22
2023-04-25T23:25:28.280Z,98636.22
2023-04-25T23:27:55.411Z,98632.06
2023-04-25T23:30:22.175Z,98634.25
2023-04-25T23:32:48.868Z,98633.63
2023-04-25T23:35:15.691Z,98627.53
2023-04-25T23:37:42.432Z,98615.97
2023-04-25T23:40:10.197Z,98608.66
2023-04-25T23:42:37.674Z,98614.81
2023-04-25T23:45:06.052Z,98614.25
2023-04-25T23:47:33.123Z,98616.16
2023-04-25T23:50:00.063Z,98601.56
2023-04-25T23:52:28.426Z,98613.59
2023-04-25T23:54:56.351Z,98601.13
2023-04-25T23:57:23.201Z,98607.84
2023-04-25T23:59:49.864Z,98606.47
